Time;durP1;ratioP1;P1;durP2;ratioP2;P2;SDS_P1;SDS_P2;PMS_P1;PMS_P2;Temp;Humidity;BMP_temperature;BMP_pressure;BME280_temperature;BME280_humidity;BME280_pressure;Samples;Min_cycle;Max_cycle;Signal;HPM_P1;HPM_P2
2022/06/21 00:01:11;;;;;;;3.10;1.40;;;;;;;;;;5105553;28;20027;-62
2022/06/21 00:03:38;;;;;;;3.40;1.38;;;;;;;;;;5104806;27;20069;-62
2022/06/21 00:06:04;;;;;;;3.47;1.40;;;;;;;;;;5103381;27;20035;-62
2022/06/21 00:08:32;;;;;;;3.22;1.20;;;;;;;;;;5104133;27;20074;-62
2022/06/21 00:11:00;;;;;;;2.35;0.80;;;;;;;;;;5103615;28;20677;-62
2022/06/21 00:13:31;;;;;;;3.05;1.05;;;;;;;;;;5112816;27;20080;-62
2022/06/21 00:15:59;;;;;;;3.38;1.10;;;;;;;;;;5103808;28;20062;-63
2022/06/21 00:18:27;;;;;;;2.80;0.90;;;;;;;;;;5101968;27;20043;-63
2022/06/21 00:20:54;;;;;;;2.78;1.20;;;;;;;;;;5105828;27;20114;-62
2022/06/21 00:23:22;;;;;;;3.20;1.20;;;;;;;;;;5104263;27;20954;-63
2022/06/21 00:25:49;;;;;;;2.70;1.15;;;;;;;;;;5102702;27;20075;-62
2022/06/21 00:28:17;;;;;;;4.25;1.10;;;;;;;;;;5105412;27;20055;-62
2022/06/21 00:30:44;;;;;;;3.25;1.48;;;;;;;;;;5104251;27;20123;-63
2022/06/21 00:33:15;;;;;;;2.88;1.15;;;;;;;;;;5104148;28;20036;-63
2022/06/21 00:35:43;;;;;;;4.55;1.42;;;;;;;;;;5103750;27;20055;-61
2022/06/21 00:38:16;;;;;;;3.45;1.38;;;;;;;;;;5104458;27;20059;-62
2022/06/21 00:40:43;;;;;;;3.17;1.20;;;;;;;;;;5104097;27;20038;-62
2022/06/21 00:43:13;;;;;;;3.53;1.45;;;;;;;;;;5104121;27;20047;-62
2022/06/21 00:45:42;;;;;;;3.97;1.40;;;;;;;;;;5103903;27;20126;-62
2022/06/21 00:48:11;;;;;;;3.28;1.40;;;;;;;;;;5104665;27;20073;-63
2022/06/21 00:50:45;;;;;;;3.20;1.30;;;;;;;;;;5101897;28;20051;-63
2022/06/21 00:53:18;;;;;;;3.47;1.40;;;;;;;;;;5102706;27;20393;-64
2022/06/21 00:55:52;;;;;;;3.33;1.30;;;;;;;;;;5105125;27;20089;-63
2022/06/21 00:58:20;;;;;;;3.42;1.00;;;;;;;;;;5107115;27;20047;-63
2022/06/21 01:01:00;;;;;;;3.33;1.27;;;;;;;;;;5106150;27;20135;-62
2022/06/21 01:03:31;;;;;;;3.72;1.40;;;;;;;;;;5106010;27;20078;-66
2022/06/21 01:06:01;;;;;;;5.55;2.55;;;;;;;;;;5103022;27;20054;-66
2022/06/21 01:08:29;;;;;;;3.15;1.35;;;;;;;;;;5104031;27;20043;-63
2022/06/21 01:10:58;;;;;;;5.10;1.45;;;;;;;;;;5105276;27;20089;-61
2022/06/21 01:13:28;;;;;;;3.63;1.70;;;;;;;;;;5106183;27;20050;-65
2022/06/21 01:15:55;;;;;;;3.92;1.50;;;;;;;;;;5105474;27;20027;-62
2022/06/21 01:18:22;;;;;;;3.60;1.40;;;;;;;;;;5106034;27;20047;-63
2022/06/21 01:20:51;;;;;;;3.10;1.25;;;;;;;;;;5106964;27;20055;-64
2022/06/21 01:23:36;;;;;;;4.07;1.20;;;;;;;;;;5106412;27;20552;-62
2022/06/21 01:26:20;;;;;;;4.00;1.15;;;;;;;;;;5105780;27;20043;-63
2022/06/21 01:28:48;;;;;;;3.83;1.98;;;;;;;;;;5106041;27;20082;-63
2022/06/21 01:31:15;;;;;;;4.72;1.55;;;;;;;;;;5108851;27;20049;-65
2022/06/21 01:33:43;;;;;;;3.42;1.55;;;;;;;;;;5105046;27;20412;-67
2022/06/21 01:36:21;;;;;;;3.22;1.45;;;;;;;;;;5105893;27;20436;-62
2022/06/21 01:38:50;;;;;;;4.32;1.40;;;;;;;;;;5103508;27;20051;-64
2022/06/21 01:41:19;;;;;;;2.90;1.10;;;;;;;;;;5104997;27;20046;-63
2022/06/21 01:43:48;;;;;;;3.42;1.42;;;;;;;;;;5108283;27;20123;-63
2022/06/21 01:46:17;;;;;;;5.70;1.48;;;;;;;;;;5109132;27;20108;-67
2022/06/21 01:48:46;;;;;;;4.68;2.05;;;;;;;;;;5109383;27;20031;-65
2022/06/21 01:51:18;;;;;;;2.88;1.10;;;;;;;;;;5127108;27;20372;-65
2022/06/21 01:53:45;;;;;;;4.72;1.65;;;;;;;;;;5125899;27;20184;-65
2022/06/21 01:56:17;;;;;;;3.38;1.50;;;;;;;;;;5124993;27;20059;-63
2022/06/21 01:58:47;;;;;;;5.68;1.50;;;;;;;;;;5125392;27;20039;-64
2022/06/21 02:01:23;;;;;;;3.40;1.40;;;;;;;;;;5126104;27;20051;-64
2022/06/21 02:03:52;;;;;;;4.47;1.48;;;;;;;;;;5125880;27;20046;-64
2022/06/21 02:06:19;;;;;;;3.20;1.20;;;;;;;;;;5125031;27;20506;-64
2022/06/21 02:08:52;;;;;;;4.05;1.38;;;;;;;;;;5126079;27;20173;-63
2022/06/21 02:11:39;;;;;;;4.20;1.30;;;;;;;;;;5125825;27;20078;-63
2022/06/21 02:14:29;;;;;;;3.17;1.00;;;;;;;;;;5108791;27;20118;-63
2022/06/21 02:16:59;;;;;;;3.05;1.10;;;;;;;;;;5124676;27;20050;-63
2022/06/21 02:19:32;;;;;;;3.00;1.17;;;;;;;;;;5127002;27;20136;-63
2022/06/21 02:21:59;;;;;;;2.60;0.90;;;;;;;;;;5125075;27;20047;-63
2022/06/21 02:24:28;;;;;;;3.38;0.93;;;;;;;;;;5125498;27;20031;-63
2022/06/21 02:26:56;;;;;;;3.00;1.00;;;;;;;;;;5124992;27;20726;-63
2022/06/21 02:29:23;;;;;;;3.60;1.42;;;;;;;;;;5124755;27;20044;-62
2022/06/21 02:31:50;;;;;;;2.78;1.08;;;;;;;;;;5124980;27;20172;-63
2022/06/21 02:34:25;;;;;;;2.90;1.10;;;;;;;;;;5126473;27;20050;-64
2022/06/21 02:36:53;;;;;;;4.53;1.13;;;;;;;;;;5123792;27;20039;-62
2022/06/21 02:39:22;;;;;;;3.55;1.20;;;;;;;;;;5126706;27;20052;-64
2022/06/21 02:41:53;;;;;;;2.33;0.85;;;;;;;;;;5116462;27;20050;-66
2022/06/21 02:44:23;;;;;;;3.25;1.15;;;;;;;;;;5126509;27;20037;-64
2022/06/21 02:46:52;;;;;;;4.85;1.25;;;;;;;;;;5105268;27;20043;-65
2022/06/21 02:49:22;;;;;;;2.90;1.02;;;;;;;;;;5105222;27;20066;-64
2022/06/21 02:51:52;;;;;;;3.83;1.30;;;;;;;;;;5126048;27;20087;-63
2022/06/21 02:54:26;;;;;;;4.22;1.30;;;;;;;;;;5126700;27;20035;-64
2022/06/21 02:57:13;;;;;;;3.55;1.10;;;;;;;;;;5104652;27;20119;-64
2022/06/21 02:59:41;;;;;;;3.45;1.30;;;;;;;;;;5104399;27;20040;-63
2022/06/21 03:02:18;;;;;;;3.55;1.35;;;;;;;;;;5105938;27;20042;-62
2022/06/21 03:04:55;;;;;;;3.25;1.40;;;;;;;;;;5104584;27;20522;-63
2022/06/21 03:07:48;;;;;;;3.65;1.42;;;;;;;;;;5105505;27;20078;-64
2022/06/21 03:10:19;;;;;;;4.10;1.48;;;;;;;;;;5103461;27;20047;-61
2022/06/21 03:12:48;;;;;;;4.13;1.30;;;;;;;;;;5104875;27;20042;-60
2022/06/21 03:15:18;;;;;;;4.30;1.60;;;;;;;;;;5102096;27;20274;-59
2022/06/21 03:17:54;;;;;;;4.38;1.60;;;;;;;;;;5101429;27;20040;-64
2022/06/21 03:20:22;;;;;;;3.50;1.35;;;;;;;;;;5105289;27;20048;-62
2022/06/21 03:22:50;;;;;;;5.20;1.10;;;;;;;;;;5105562;27;20209;-62
2022/06/21 03:25:29;;;;;;;5.18;1.42;;;;;;;;;;5113334;27;20439;-63
2022/06/21 03:27:56;;;;;;;3.80;1.50;;;;;;;;;;5125310;27;20404;-62
2022/06/21 03:30:27;;;;;;;3.40;1.55;;;;;;;;;;5125511;27;20058;-62
2022/06/21 03:32:55;;;;;;;5.22;1.80;;;;;;;;;;5126061;27;20091;-63
2022/06/21 03:35:22;;;;;;;3.88;1.58;;;;;;;;;;5125323;27;20043;-63
2022/06/21 03:37:49;;;;;;;6.05;1.40;;;;;;;;;;5123393;27;20034;-64
2022/06/21 03:43:25;;;;;;;3.50;1.38;;;;;;;;;;5125090;27;20037;-62
2022/06/21 03:45:53;;;;;;;3.03;1.30;;;;;;;;;;5112155;27;20031;-62
2022/06/21 03:48:26;;;;;;;4.63;1.50;;;;;;;;;;5125846;27;20035;-63
2022/06/21 03:50:58;;;;;;;5.30;1.23;;;;;;;;;;5124813;27;20047;-63
2022/06/21 03:53:27;;;;;;;3.85;1.38;;;;;;;;;;5105317;27;20046;-63
2022/06/21 03:55:58;;;;;;;3.28;1.40;;;;;;;;;;5123368;27;20114;-62
2022/06/21 03:58:33;;;;;;;3.83;1.40;;;;;;;;;;5123675;27;20792;-62
2022/06/21 04:01:02;;;;;;;4.00;1.60;;;;;;;;;;5124572;27;20031;-62
2022/06/21 04:03:32;;;;;;;5.50;1.50;;;;;;;;;;5123983;27;20439;-63
2022/06/21 04:06:10;;;;;;;5.15;1.58;;;;;;;;;;5123575;27;20117;-62
2022/06/21 04:08:39;;;;;;;3.65;1.20;;;;;;;;;;5122656;27;20165;-62
2022/06/21 04:11:18;;;;;;;5.13;1.50;;;;;;;;;;5122253;27;20578;-62
2022/06/21 04:13:48;;;;;;;5.15;1.35;;;;;;;;;;5122790;27;20794;-63
2022/06/21 04:16:18;;;;;;;3.70;1.60;;;;;;;;;;5122839;27;20042;-63
2022/06/21 04:18:45;;;;;;;5.03;1.77;;;;;;;;;;5122945;27;20477;-62
2022/06/21 04:21:16;;;;;;;3.47;1.45;;;;;;;;;;5123877;27;20054;-63
2022/06/21 04:23:49;;;;;;;3.40;1.42;;;;;;;;;;5103725;27;20039;-63
2022/06/21 04:26:19;;;;;;;4.10;1.75;;;;;;;;;;5123033;27;20043;-62
2022/06/21 04:28:50;;;;;;;4.82;1.67;;;;;;;;;;5124660;27;20051;-62
2022/06/21 04:31:24;;;;;;;3.72;1.60;;;;;;;;;;5128473;27;20051;-61
2022/06/21 04:34:11;;;;;;;4.15;1.50;;;;;;;;;;5127565;27;20049;-62
2022/06/21 04:36:40;;;;;;;3.88;1.50;;;;;;;;;;5108992;27;20036;-62
2022/06/21 04:39:16;;;;;;;4.93;1.90;;;;;;;;;;5108276;27;20063;-62
2022/06/21 04:42:09;;;;;;;5.05;1.88;;;;;;;;;;5126774;27;20030;-62
2022/06/21 04:44:56;;;;;;;4.32;1.60;;;;;;;;;;5086218;27;20082;-62
2022/06/21 04:47:25;;;;;;;3.95;1.90;;;;;;;;;;5126615;27;20103;-62
2022/06/21 04:49:55;;;;;;;7.68;2.20;;;;;;;;;;5127813;27;20055;-63
2022/06/21 04:52:26;;;;;;;8.35;2.10;;;;;;;;;;5126299;27;20035;-63
2022/06/21 04:54:52;;;;;;;5.95;2.10;;;;;;;;;;5126447;27;20111;-62
2022/06/21 04:57:21;;;;;;;4.75;1.98;;;;;;;;;;5127972;27;20118;-63
2022/06/21 04:59:49;;;;;;;4.28;2.10;;;;;;;;;;5115505;27;20040;-63
2022/06/21 05:02:16;;;;;;;4.88;2.13;;;;;;;;;;5108032;27;20032;-62
2022/06/21 05:04:43;;;;;;;6.57;2.22;;;;;;;;;;5106318;27;20047;-62
2022/06/21 05:07:15;;;;;;;5.15;1.85;;;;;;;;;;5106182;27;20031;-63
2022/06/21 05:09:42;;;;;;;4.82;1.70;;;;;;;;;;5105893;27;20046;-63
2022/06/21 05:12:20;;;;;;;5.10;1.90;;;;;;;;;;5106173;27;20047;-64
2022/06/21 05:14:49;;;;;;;4.38;2.00;;;;;;;;;;5107173;27;20050;-63
2022/06/21 05:17:17;;;;;;;8.13;1.85;;;;;;;;;;5108908;27;20094;-63
2022/06/21 05:19:49;;;;;;;4.55;1.77;;;;;;;;;;5106665;27;20051;-63
2022/06/21 05:22:24;;;;;;;4.75;1.90;;;;;;;;;;5107322;27;20035;-63
2022/06/21 05:24:51;;;;;;;6.90;2.05;;;;;;;;;;5125802;27;20039;-63
2022/06/21 05:27:21;;;;;;;4.38;1.50;;;;;;;;;;5111224;27;20039;-62
2022/06/21 05:29:57;;;;;;;5.07;2.13;;;;;;;;;;5126621;27;20133;-62
2022/06/21 05:32:27;;;;;;;7.72;2.17;;;;;;;;;;5126803;27;20153;-62
2022/06/21 05:34:56;;;;;;;6.53;1.73;;;;;;;;;;5126536;27;20045;-63
2022/06/21 05:37:31;;;;;;;7.00;2.03;;;;;;;;;;5127918;27;20070;-63
2022/06/21 05:39:59;;;;;;;4.47;2.00;;;;;;;;;;5128918;27;20035;-62
2022/06/21 05:42:27;;;;;;;4.72;1.95;;;;;;;;;;5127027;27;20564;-63
2022/06/21 05:44:56;;;;;;;4.88;2.03;;;;;;;;;;5126333;27;20035;-62
2022/06/21 05:47:26;;;;;;;5.72;1.80;;;;;;;;;;5124927;27;20039;-63
2022/06/21 05:49:54;;;;;;;4.20;2.00;;;;;;;;;;5127435;27;20047;-63
2022/06/21 05:52:23;;;;;;;4.75;2.00;;;;;;;;;;5124610;27;20039;-63
2022/06/21 05:54:57;;;;;;;4.00;2.03;;;;;;;;;;5127200;27;20073;-62
2022/06/21 05:57:26;;;;;;;4.75;2.17;;;;;;;;;;5126331;27;20042;-63
2022/06/21 05:59:53;;;;;;;7.93;1.90;;;;;;;;;;5126219;27;20046;-62
2022/06/21 06:02:32;;;;;;;4.68;1.90;;;;;;;;;;5126308;27;20101;-62
2022/06/21 06:05:19;;;;;;;5.40;2.15;;;;;;;;;;5125212;27;20043;-62
2022/06/21 06:07:56;;;;;;;5.88;1.85;;;;;;;;;;5124813;27;20043;-63
2022/06/21 06:10:24;;;;;;;8.25;2.00;;;;;;;;;;5124989;27;20485;-63
2022/06/21 06:12:55;;;;;;;6.22;1.58;;;;;;;;;;5125100;27;20043;-63
2022/06/21 06:15:24;;;;;;;3.97;1.73;;;;;;;;;;5125019;27;20046;-63
2022/06/21 06:17:54;;;;;;;5.63;1.80;;;;;;;;;;5114223;27;20848;-63
2022/06/21 06:20:21;;;;;;;5.55;1.90;;;;;;;;;;5106692;27;20059;-63
2022/06/21 06:22:52;;;;;;;4.78;1.98;;;;;;;;;;5104096;27;20035;-63
2022/06/21 06:25:24;;;;;;;5.32;1.98;;;;;;;;;;5105901;27;21648;-63
2022/06/21 06:28:00;;;;;;;4.07;1.92;;;;;;;;;;5104546;27;20044;-63
2022/06/21 06:30:33;;;;;;;6.90;2.22;;;;;;;;;;5105122;27;20043;-63
2022/06/21 06:33:00;;;;;;;;;;;;;;;;;;5107376;27;20890;-63
2022/06/21 06:35:27;;;;;;;4.18;1.90;;;;;;;;;;5105386;27;19949;-64
2022/06/21 06:37:54;;;;;;;5.07;1.90;;;;;;;;;;5106252;27;20042;-65
2022/06/21 06:40:33;;;;;;;4.47;1.88;;;;;;;;;;5106740;27;20840;-64
2022/06/21 06:43:20;;;;;;;4.18;2.10;;;;;;;;;;5104657;27;20451;-64
2022/06/21 06:45:49;;;;;;;3.78;1.67;;;;;;;;;;5090355;27;20043;-64
2022/06/21 06:48:25;;;;;;;4.13;1.70;;;;;;;;;;5106348;27;20088;-64
2022/06/21 06:50:59;;;;;;;3.75;1.60;;;;;;;;;;5111289;27;20052;-64
2022/06/21 06:53:30;;;;;;;4.43;2.00;;;;;;;;;;5102713;27;20069;-64
2022/06/21 06:56:03;;;;;;;3.55;1.42;;;;;;;;;;5104572;27;20035;-63
2022/06/21 06:58:38;;;;;;;4.95;2.00;;;;;;;;;;5102974;27;20036;-63
2022/06/21 07:01:16;;;;;;;4.70;1.80;;;;;;;;;;5104932;27;20676;-63
2022/06/21 07:03:49;;;;;;;4.00;1.90;;;;;;;;;;5102580;27;20090;-63
2022/06/21 07:06:18;;;;;;;3.80;1.73;;;;;;;;;;5105624;27;20083;-63
2022/06/21 07:08:57;;;;;;;4.32;1.90;;;;;;;;;;5103265;27;21119;-63
2022/06/21 07:11:46;;;;;;;5.88;2.13;;;;;;;;;;5104514;27;20059;-63
2022/06/21 07:14:16;;;;;;;4.65;2.08;;;;;;;;;;5100165;27;20381;-63
2022/06/21 07:16:43;;;;;;;5.78;2.17;;;;;;;;;;5069497;28;20051;-63
2022/06/21 07:19:11;;;;;;;4.28;1.83;;;;;;;;;;5088856;28;20047;-63
2022/06/21 07:21:41;;;;;;;5.32;2.30;;;;;;;;;;5088294;28;20165;-62
2022/06/21 07:24:15;;;;;;;5.47;2.38;;;;;;;;;;5110327;27;20043;-63
2022/06/21 07:26:46;;;;;;;5.38;2.17;;;;;;;;;;5104083;27;20458;-63
2022/06/21 07:29:19;;;;;;;5.82;2.53;;;;;;;;;;5104043;27;20047;-63
2022/06/21 07:31:56;;;;;;;5.68;2.13;;;;;;;;;;5111615;27;20073;-63
2022/06/21 07:34:22;;;;;;;6.05;2.42;;;;;;;;;;5102387;27;20045;-63
2022/06/21 07:36:52;;;;;;;5.32;2.20;;;;;;;;;;5103483;27;20059;-63
2022/06/21 07:39:23;;;;;;;6.30;2.10;;;;;;;;;;5103099;27;20903;-62
2022/06/21 07:41:52;;;;;;;4.00;1.90;;;;;;;;;;5103509;27;20039;-63
2022/06/21 07:44:22;;;;;;;5.70;2.33;;;;;;;;;;5107297;28;20039;-62
2022/06/21 07:46:51;;;;;;;5.78;2.00;;;;;;;;;;5115604;27;20083;-63
2022/06/21 07:49:21;;;;;;;5.25;1.98;;;;;;;;;;5124599;27;20822;-63
2022/06/21 07:51:50;;;;;;;6.20;2.13;;;;;;;;;;5096495;28;20044;-63
2022/06/21 07:54:17;;;;;;;4.50;2.00;;;;;;;;;;5103307;27;20131;-63
2022/06/21 07:56:51;;;;;;;5.65;2.53;;;;;;;;;;5101447;27;20115;-63
2022/06/21 07:59:19;;;;;;;6.65;2.33;;;;;;;;;;5104074;27;20040;-63
2022/06/21 08:07:52;;;;;;;5.68;2.33;;;;;;;;;;5115753;27;20042;-63
2022/06/21 08:10:40;;;;;;;5.55;2.28;;;;;;;;;;5108201;27;20084;-63
2022/06/21 08:13:07;;;;;;;6.97;2.25;;;;;;;;;;5123088;27;20035;-63
2022/06/21 08:15:40;;;;;;;5.97;1.95;;;;;;;;;;5127124;27;20049;-63
2022/06/21 08:18:08;;;;;;;7.00;2.13;;;;;;;;;;5129999;27;20515;-62
2022/06/21 08:20:42;;;;;;;7.13;2.60;;;;;;;;;;5129425;27;20031;-63
2022/06/21 08:23:13;;;;;;;4.32;2.22;;;;;;;;;;5128055;27;20107;-63
2022/06/21 08:25:39;;;;;;;5.13;2.50;;;;;;;;;;5127955;27;20035;-63
2022/06/21 08:28:10;;;;;;;6.72;2.55;;;;;;;;;;5128506;27;20119;-63
2022/06/21 08:30:52;;;;;;;8.98;2.75;;;;;;;;;;5128374;27;20050;-62
2022/06/21 08:33:22;;;;;;;6.50;2.22;;;;;;;;;;5127900;27;20043;-62
2022/06/21 08:35:50;;;;;;;6.82;2.60;;;;;;;;;;5127908;27;20135;-62
2022/06/21 08:38:28;;;;;;;9.68;2.33;;;;;;;;;;5129241;27;20050;-62
2022/06/21 08:44:11;;;;;;;8.18;2.20;;;;;;;;;;5129374;27;20093;-63
2022/06/21 08:46:56;;;;;;;6.32;2.47;;;;;;;;;;5127456;27;20478;-62
2022/06/21 08:49:23;;;;;;;5.57;2.33;;;;;;;;;;5127309;27;20115;-62
2022/06/21 08:51:55;;;;;;;5.28;2.40;;;;;;;;;;5126656;27;20057;-61
2022/06/21 08:54:25;;;;;;;7.00;2.80;;;;;;;;;;5126046;27;20499;-63
2022/06/21 08:57:09;;;;;;;7.75;2.55;;;;;;;;;;5126712;27;20053;-61
2022/06/21 08:59:48;;;;;;;6.00;2.30;;;;;;;;;;5108399;27;20122;-62
2022/06/21 09:02:34;;;;;;;5.63;2.47;;;;;;;;;;5125897;27;20066;-61
2022/06/21 09:05:04;;;;;;;5.00;2.90;;;;;;;;;;5125532;27;20038;-61
2022/06/21 09:07:37;;;;;;;6.00;2.55;;;;;;;;;;5126011;27;20799;-62
2022/06/21 09:10:03;;;;;;;4.78;2.38;;;;;;;;;;5126987;27;20046;-63
2022/06/21 09:13:03;;;;;;;7.50;2.90;;;;;;;;;;5126919;27;20055;-63
2022/06/21 09:15:33;;;;;;;5.40;2.60;;;;;;;;;;5103850;27;20530;-63
2022/06/21 09:18:00;;;;;;;5.05;2.45;;;;;;;;;;5125894;27;20050;-63
2022/06/21 09:20:33;;;;;;;5.90;2.58;;;;;;;;;;5125601;27;20107;-63
2022/06/21 09:23:06;;;;;;;7.47;2.83;;;;;;;;;;5125227;27;20080;-62
2022/06/21 09:25:45;;;;;;;5.32;2.75;;;;;;;;;;5126966;27;20047;-62
2022/06/21 09:28:12;;;;;;;5.55;2.63;;;;;;;;;;5126742;27;20050;-62
2022/06/21 09:30:43;;;;;;;4.65;2.20;;;;;;;;;;5126820;27;20740;-62
2022/06/21 09:33:17;;;;;;;4.60;2.50;;;;;;;;;;5126193;27;20035;-63
2022/06/21 09:35:47;;;;;;;4.97;2.65;;;;;;;;;;5103867;27;20039;-62
2022/06/21 09:38:23;;;;;;;4.97;2.28;;;;;;;;;;5105656;27;20084;-63
2022/06/21 09:40:52;;;;;;;6.57;2.80;;;;;;;;;;5105941;27;20066;-63
2022/06/21 09:43:30;;;;;;;7.20;2.72;;;;;;;;;;5107787;27;20040;-63
2022/06/21 09:46:06;;;;;;;5.53;2.40;;;;;;;;;;5105440;27;20059;-62
2022/06/21 09:48:51;;;;;;;7.35;2.42;;;;;;;;;;5125094;27;20046;-62
2022/06/21 09:51:22;;;;;;;5.90;2.63;;;;;;;;;;5126542;27;20047;-62
2022/06/21 09:54:04;;;;;;;5.75;2.38;;;;;;;;;;5104156;27;20038;-63
2022/06/21 09:56:43;;;;;;;5.85;2.08;;;;;;;;;;5105517;27;20035;-61
2022/06/21 09:59:12;;;;;;;4.50;2.20;;;;;;;;;;5105704;27;20067;-61
2022/06/21 10:01:39;;;;;;;5.45;2.20;;;;;;;;;;5103294;27;20039;-62
2022/06/21 10:04:21;;;;;;;5.35;2.25;;;;;;;;;;5106610;27;20379;-62
2022/06/21 10:06:56;;;;;;;3.85;1.90;;;;;;;;;;5104830;27;21243;-61
2022/06/21 10:09:38;;;;;;;4.90;2.28;;;;;;;;;;5104504;27;20063;-62
2022/06/21 10:12:14;;;;;;;4.55;1.98;;;;;;;;;;5106520;27;20495;-64
2022/06/21 10:14:40;;;;;;;4.60;2.30;;;;;;;;;;5103548;27;20503;-63
2022/06/21 10:17:13;;;;;;;4.25;2.22;;;;;;;;;;5106905;27;20831;-62
2022/06/21 10:19:59;;;;;;;9.65;2.22;;;;;;;;;;5104113;27;20039;-61
2022/06/21 10:22:37;;;;;;;5.38;2.40;;;;;;;;;;5105588;27;21146;-62
2022/06/21 10:25:03;;;;;;;5.68;2.40;;;;;;;;;;5103485;27;20108;-62
2022/06/21 10:27:38;;;;;;;5.38;2.05;;;;;;;;;;5120261;27;20039;-61
2022/06/21 10:30:08;;;;;;;8.35;2.53;;;;;;;;;;5103950;27;20442;-61
2022/06/21 10:32:37;;;;;;;4.07;1.90;;;;;;;;;;5103572;27;20092;-62
2022/06/21 10:35:07;;;;;;;5.13;2.45;;;;;;;;;;5102204;27;21059;-62
2022/06/21 10:37:40;;;;;;;4.55;2.15;;;;;;;;;;5106728;27;20176;-61
2022/06/21 10:40:21;;;;;;;5.55;2.35;;;;;;;;;;5116248;27;20039;-62
2022/06/21 10:42:53;;;;;;;5.20;1.90;;;;;;;;;;5113593;27;20138;-63
2022/06/21 10:45:38;;;;;;;8.98;2.30;;;;;;;;;;5104174;27;20043;-62
2022/06/21 10:48:23;;;;;;;4.97;2.20;;;;;;;;;;5104060;27;20040;-62
2022/06/21 10:51:14;;;;;;;4.72;2.47;;;;;;;;;;5111631;27;20188;-62
2022/06/21 10:53:50;;;;;;;7.00;2.13;;;;;;;;;;5104325;27;20051;-62
2022/06/21 10:59:07;;;;;;;4.78;2.10;;;;;;;;;;5111762;27;20156;-62
2022/06/21 11:01:37;;;;;;;4.28;2.30;;;;;;;;;;5112645;27;20447;-63
2022/06/21 11:04:27;;;;;;;5.38;2.28;;;;;;;;;;5104966;27;20028;-63
2022/06/21 11:07:12;;;;;;;4.82;2.10;;;;;;;;;;5104865;27;20047;-63
2022/06/21 11:09:44;;;;;;;5.85;2.20;;;;;;;;;;5104391;27;20047;-63
2022/06/21 11:15:17;;;;;;;5.43;2.53;;;;;;;;;;5111269;27;20208;-63
2022/06/21 11:17:53;;;;;;;5.20;2.42;;;;;;;;;;5103910;27;20867;-66
2022/06/21 11:20:20;;;;;;;5.53;2.40;;;;;;;;;;5105952;27;20092;-66
2022/06/21 11:22:57;;;;;;;5.95;2.92;;;;;;;;;;5104498;27;20119;-62
2022/06/21 11:25:26;;;;;;;5.60;2.60;;;;;;;;;;5103274;27;20043;-62
2022/06/21 11:28:06;;;;;;;6.95;2.67;;;;;;;;;;5104161;27;20492;-63
2022/06/21 11:30:48;;;;;;;5.55;2.53;;;;;;;;;;5105305;27;20059;-63
2022/06/21 11:33:26;;;;;;;7.60;2.97;;;;;;;;;;5102389;27;20063;-64
2022/06/21 11:35:56;;;;;;;5.45;2.50;;;;;;;;;;5102885;27;20049;-64
2022/06/21 11:38:41;;;;;;;11.82;3.08;;;;;;;;;;5101992;27;20050;-63
2022/06/21 11:42:04;;;;;;;9.90;3.28;;;;;;;;;;5103569;27;20118;-64
2022/06/21 11:44:22;;;;;;;7.45;2.85;;;;;;;;;;5108021;27;20130;-63
2022/06/21 11:46:48;;;;;;;;;;;;;;;;;;5102111;28;20448;-65
2022/06/21 11:49:15;;;;;;;5.43;2.60;;;;;;;;;;5104741;28;19942;-60
2022/06/21 11:51:57;;;;;;;7.65;2.38;;;;;;;;;;5104091;27;20336;-61
2022/06/21 11:54:30;;;;;;;4.82;2.20;;;;;;;;;;5102723;27;20046;-64
2022/06/21 11:57:16;;;;;;;4.82;2.08;;;;;;;;;;5103985;27;20079;-63
2022/06/21 11:59:57;;;;;;;4.88;2.03;;;;;;;;;;5102600;27;20826;-59
2022/06/21 12:02:32;;;;;;;8.45;2.35;;;;;;;;;;5102153;28;20042;-60
2022/06/21 12:05:02;;;;;;;4.95;2.15;;;;;;;;;;5103826;27;20078;-64
2022/06/21 12:07:36;;;;;;;5.63;1.95;;;;;;;;;;5104558;27;20047;-64
2022/06/21 12:10:09;;;;;;;5.53;1.95;;;;;;;;;;5105746;27;20044;-64
2022/06/21 12:12:41;;;;;;;4.43;2.05;;;;;;;;;;5102399;27;20396;-62
2022/06/21 12:15:17;;;;;;;4.93;2.25;;;;;;;;;;5101976;28;20044;-64
2022/06/21 12:17:44;;;;;;;5.47;2.33;;;;;;;;;;5104795;27;20584;-63
2022/06/21 12:20:22;;;;;;;5.05;2.17;;;;;;;;;;5103249;28;20044;-63
2022/06/21 12:22:53;;;;;;;6.75;2.30;;;;;;;;;;5102407;27;20122;-64
2022/06/21 12:25:21;;;;;;;4.85;2.30;;;;;;;;;;5103822;27;20071;-62
2022/06/21 12:27:47;;;;;;;4.57;2.35;;;;;;;;;;5107983;27;21744;-61
2022/06/21 12:30:14;;;;;;;7.53;2.10;;;;;;;;;;5101464;28;20043;-68
2022/06/21 12:32:41;;;;;;;5.35;2.30;;;;;;;;;;5100536;27;20031;-61
2022/06/21 12:35:16;;;;;;;8.10;2.55;;;;;;;;;;5104446;27;20123;-63
2022/06/21 12:37:54;;;;;;;5.75;2.50;;;;;;;;;;5103690;27;20082;-63
2022/06/21 12:40:29;;;;;;;7.10;2.30;;;;;;;;;;5102531;27;20071;-63
2022/06/21 12:43:15;;;;;;;5.65;2.50;;;;;;;;;;5100895;27;20364;-65
2022/06/21 12:45:59;;;;;;;10.70;3.55;;;;;;;;;;5094403;27;20048;-64
2022/06/21 12:48:45;;;;;;;6.25;3.05;;;;;;;;;;5110168;27;20031;-64
2022/06/21 12:51:21;;;;;;;6.05;2.67;;;;;;;;;;5105924;27;20043;-63
2022/06/21 12:54:10;;;;;;;9.13;2.55;;;;;;;;;;5103963;27;20072;-62
2022/06/21 12:56:37;;;;;;;10.90;2.42;;;;;;;;;;5098352;27;20416;-62
2022/06/21 12:59:10;;;;;;;10.32;3.00;;;;;;;;;;5106832;27;20117;-63
2022/06/21 13:01:39;;;;;;;8.38;3.30;;;;;;;;;;5101038;27;20040;-64
2022/06/21 13:04:34;;;;;;;11.38;3.40;;;;;;;;;;5104503;27;20100;-62
2022/06/21 13:07:12;;;;;;;8.85;3.33;;;;;;;;;;5112587;27;20072;-62
2022/06/21 13:09:50;;;;;;;12.38;3.70;;;;;;;;;;5104738;27;20112;-63
2022/06/21 13:12:19;;;;;;;9.18;3.40;;;;;;;;;;5108328;27;20412;-63
2022/06/21 13:15:05;;;;;;;8.65;3.08;;;;;;;;;;5117840;27;20039;-62
2022/06/21 13:17:44;;;;;;;10.40;3.03;;;;;;;;;;5128099;27;20570;-63
2022/06/21 13:20:13;;;;;;;6.32;3.20;;;;;;;;;;5128121;27;20048;-62
2022/06/21 13:22:43;;;;;;;8.02;3.10;;;;;;;;;;5126776;27;20038;-63
2022/06/21 13:25:12;;;;;;;8.18;3.17;;;;;;;;;;5129261;27;20050;-63
2022/06/21 13:27:42;;;;;;;6.95;3.50;;;;;;;;;;5128561;27;20088;-63
2022/06/21 13:30:30;;;;;;;9.27;3.38;;;;;;;;;;5128662;27;20065;-63
2022/06/21 13:33:17;;;;;;;5.90;2.97;;;;;;;;;;5108610;27;20054;-64
2022/06/21 13:36:02;;;;;;;12.88;3.40;;;;;;;;;;5107840;27;20044;-61
2022/06/21 13:38:32;;;;;;;7.10;3.40;;;;;;;;;;5107434;27;20042;-63
2022/06/21 13:42:37;;;;;;;8.98;3.03;;;;;;;;;;5106130;27;20047;-61
2022/06/21 13:44:03;;;;;;;10.65;3.47;;;;;;;;;;5124766;27;20909;-63
2022/06/21 13:46:33;;;;;;;12.35;3.30;;;;;;;;;;5125881;27;20039;-60
2022/06/21 13:49:03;;;;;;;6.38;3.08;;;;;;;;;;5127101;27;20063;-64
2022/06/21 13:51:45;;;;;;;4.90;2.53;;;;;;;;;;5126153;27;20043;-64
2022/06/21 13:54:12;;;;;;;6.50;2.80;;;;;;;;;;5125972;27;20050;-64
2022/06/21 13:56:41;;;;;;;7.15;2.63;;;;;;;;;;5125384;27;20475;-64
2022/06/21 13:59:11;;;;;;;8.48;2.75;;;;;;;;;;5125490;27;20091;-63
2022/06/21 14:01:47;;;;;;;8.85;2.78;;;;;;;;;;5124366;27;20081;-63
2022/06/21 14:04:14;;;;;;;9.77;2.10;;;;;;;;;;5125771;27;20498;-64
2022/06/21 14:06:40;;;;;;;6.38;2.33;;;;;;;;;;5125874;27;20076;-64
2022/06/21 14:09:15;;;;;;;4.78;2.47;;;;;;;;;;5125301;27;20126;-62
2022/06/21 14:11:42;;;;;;;6.00;2.15;;;;;;;;;;5123610;27;20050;-64
2022/06/21 14:14:28;;;;;;;6.28;2.38;;;;;;;;;;5124646;27;20126;-64
2022/06/21 14:16:56;;;;;;;5.78;2.20;;;;;;;;;;5125331;27;20039;-64
2022/06/21 14:19:38;;;;;;;10.07;2.53;;;;;;;;;;5124543;27;20038;-64
2022/06/21 14:22:18;;;;;;;4.53;2.13;;;;;;;;;;5124771;27;20046;-64
2022/06/21 14:24:47;;;;;;;7.93;2.22;;;;;;;;;;5126384;27;20076;-64
2022/06/21 14:27:20;;;;;;;6.05;2.47;;;;;;;;;;5126536;27;21962;-64
2022/06/21 14:29:46;;;;;;;6.95;2.47;;;;;;;;;;5125336;27;20078;-64
2022/06/21 14:32:28;;;;;;;4.63;2.10;;;;;;;;;;5123969;27;20103;-64
2022/06/21 14:35:03;;;;;;;7.65;2.20;;;;;;;;;;5125448;27;20050;-64
2022/06/21 14:37:38;;;;;;;4.88;1.90;;;;;;;;;;5124567;27;20039;-64
2022/06/21 14:40:14;;;;;;;8.23;2.20;;;;;;;;;;5125594;27;20469;-64
2022/06/21 14:42:50;;;;;;;6.28;1.88;;;;;;;;;;5123630;27;20108;-64
2022/06/21 14:45:29;;;;;;;6.63;2.00;;;;;;;;;;5124113;27;20108;-64
2022/06/21 14:48:14;;;;;;;5.57;2.15;;;;;;;;;;5125120;27;20035;-64
2022/06/21 14:50:43;;;;;;;6.80;1.70;;;;;;;;;;5124122;27;20042;-64
2022/06/21 14:53:10;;;;;;;5.65;1.70;;;;;;;;;;5107738;27;20035;-64
2022/06/21 14:55:37;;;;;;;4.63;1.73;;;;;;;;;;5124776;27;20047;-64
2022/06/21 14:58:22;;;;;;;4.30;1.73;;;;;;;;;;5125983;27;20039;-64
2022/06/21 15:01:07;;;;;;;6.50;1.75;;;;;;;;;;5125378;27;20043;-64
2022/06/21 15:03:51;;;;;;;4.82;1.60;;;;;;;;;;5114105;27;20047;-64
2022/06/21 15:06:23;;;;;;;4.07;1.55;;;;;;;;;;5103275;27;20121;-64
2022/06/21 15:09:11;;;;;;;5.57;1.70;;;;;;;;;;5110194;27;20039;-64
2022/06/21 15:11:53;;;;;;;4.35;1.52;;;;;;;;;;5101711;27;20403;-64
2022/06/21 15:14:26;;;;;;;4.15;1.60;;;;;;;;;;5102822;27;20035;-64
2022/06/21 15:17:12;;;;;;;5.93;1.75;;;;;;;;;;5104457;27;20090;-65
2022/06/21 15:19:54;;;;;;;6.32;1.80;;;;;;;;;;5104776;27;20040;-64
2022/06/21 15:22:32;;;;;;;5.70;1.25;;;;;;;;;;5103166;27;20094;-64
2022/06/21 15:25:06;;;;;;;6.95;1.50;;;;;;;;;;5105613;27;20178;-64
2022/06/21 15:27:37;;;;;;;3.63;1.48;;;;;;;;;;5104162;27;20046;-64
2022/06/21 15:30:06;;;;;;;4.13;1.50;;;;;;;;;;5106139;27;20111;-63
2022/06/21 15:32:38;;;;;;;3.85;1.50;;;;;;;;;;5123199;27;20051;-64
2022/06/21 15:35:05;;;;;;;3.88;1.67;;;;;;;;;;5126898;27;20099;-64
2022/06/21 15:37:32;;;;;;;4.03;1.48;;;;;;;;;;5125551;27;20050;-62